createdAt,value
2023-05-08T00:01:29.687Z,56.61
2023-05-08T00:04:36.148Z,56.89
2023-05-08T00:07:41.978Z,56.99
2023-05-08T00:10:50.638Z,57.07
2023-05-08T00:13:58.965Z,57.00
2023-05-08T00:17:05.624Z,57.15
2023-05-08T00:20:13.250Z,56.86
2023-05-08T00:23:22.294Z,56.22
2023-05-08T00:26:30.734Z,55.90
2023-05-08T00:29:40.485Z,55.78
2023-05-08T00:32:47.331Z,55.94
2023-05-08T00:35:53.889Z,55.60
2023-05-08T00:39:02.864Z,55.51
2023-05-08T00:42:09.427Z,55.05
2023-05-08T00:45:17.951Z,54.93
2023-05-08T00:48:25.401Z,55.26
2023-05-08T00:51:32.268Z,55.37
2023-05-08T00:54:40.137Z,55.48
2023-05-08T00:57:49.151Z,55.24
2023-05-08T01:01:00.836Z,55.41
2023-05-08T01:04:07.457Z,55.25
2023-05-08T01:07:14.228Z,54.52
2023-05-08T01:10:19.931Z,54.65
2023-05-08T01:13:51.170Z,54.44
2023-05-08T01:17:13.875Z,54.31
2023-05-08T01:20:39.151Z,54.26
2023-05-08T01:24:33.741Z,53.69
2023-05-08T01:28:37.361Z,53.99
2023-05-08T01:32:12.715Z,54.29
2023-05-08T01:35:30.755Z,54.18
2023-05-08T01:38:55.586Z,54.31
2023-05-08T01:42:11.002Z,54.13
2023-05-08T01:45:27.485Z,54.09
2023-05-08T01:48:46.486Z,54.17
2023-05-08T01:52:06.165Z,54.32
2023-05-08T01:55:19.333Z,54.08
2023-05-08T01:58:29.683Z,54.26
2023-05-08T02:01:38.596Z,54.30
2023-05-08T02:04:48.637Z,54.45
2023-05-08T02:07:57.276Z,54.48
2023-05-08T02:11:07.184Z,54.96
2023-05-08T02:14:21.165Z,54.88
2023-05-08T02:17:30.670Z,54.89
2023-05-08T02:20:41.955Z,54.69
2023-05-08T02:23:51.860Z,54.65
2023-05-08T02:27:01.775Z,54.21
2023-05-08T02:30:11.533Z,54.36
2023-05-08T02:33:21.947Z,54.41
2023-05-08T02:36:34.112Z,54.39
2023-05-08T02:39:44.707Z,54.20
2023-05-08T02:42:52.592Z,54.38
2023-05-08T02:46:15.834Z,54.84
2023-05-08T02:49:50.064Z,55.02
2023-05-08T02:53:09.418Z,55.18
2023-05-08T02:56:35.790Z,55.50
2023-05-08T02:59:48.900Z,55.09
2023-05-08T03:03:03.250Z,55.62
2023-05-08T03:06:19.424Z,55.08
2023-05-08T03:09:42.755Z,54.73
2023-05-08T03:12:55.066Z,54.56
2023-05-08T03:16:08.375Z,54.43
2023-05-08T03:19:25.559Z,54.66
2023-05-08T03:22:37.773Z,54.39
2023-05-08T03:25:47.366Z,54.20
2023-05-08T03:28:57.578Z,54.64
2023-05-08T03:32:09.204Z,54.45
2023-05-08T03:35:19.592Z,54.29
2023-05-08T03:38:25.834Z,53.93
2023-05-08T03:41:35.574Z,54.04
2023-05-08T03:44:42.778Z,54.01
2023-05-08T03:47:51.127Z,54.13
2023-05-08T03:50:58.115Z,54.33
2023-05-08T03:54:04.740Z,53.96
2023-05-08T03:57:15.599Z,53.64
2023-05-08T04:00:38.786Z,53.47
2023-05-08T04:04:02.796Z,53.92
2023-05-08T04:07:18.728Z,53.65
2023-05-08T04:10:34.780Z,53.35
2023-05-08T04:13:55.009Z,53.38
2023-05-08T04:17:12.263Z,52.88
2023-05-08T04:20:24.022Z,53.01
2023-05-08T04:23:33.372Z,52.83
2023-05-08T04:26:41.897Z,52.49
2023-05-08T04:29:50.400Z,52.72
2023-05-08T04:32:59.771Z,52.73
2023-05-08T04:36:06.501Z,52.57
2023-05-08T04:39:13.108Z,53.11
2023-05-08T04:42:19.332Z,53.10
2023-05-08T04:45:28.720Z,53.16
2023-05-08T04:48:34.460Z,53.50
2023-05-08T04:51:41.202Z,53.92
2023-05-08T04:54:46.959Z,53.38
2023-05-08T04:57:53.533Z,53.33
2023-05-08T05:01:05.574Z,53.09
2023-05-08T05:04:12.730Z,53.02
2023-05-08T05:07:18.364Z,52.76
2023-05-08T05:10:24.931Z,53.43
2023-05-08T05:13:31.519Z,52.84
2023-05-08T05:16:40.715Z,53.15
2023-05-08T05:19:46.522Z,53.31
2023-05-08T05:22:52.989Z,52.50
2023-05-08T05:25:58.730Z,51.98
2023-05-08T05:29:05.834Z,52.31
2023-05-08T05:32:14.300Z,51.17
2023-05-08T05:35:20.965Z,50.77
2023-05-08T05:38:27.009Z,50.44
2023-05-08T05:41:34.442Z,50.50
2023-05-08T05:44:40.838Z,50.75
2023-05-08T05:47:54.395Z,50.88
2023-05-08T05:51:02.678Z,49.84
2023-05-08T05:54:09.873Z,49.89
2023-05-08T05:57:16.139Z,50.76
2023-05-08T06:00:24.224Z,50.24
2023-05-08T06:03:36.476Z,49.92
2023-05-08T06:06:44.047Z,50.30
2023-05-08T06:09:53.356Z,50.48
2023-05-08T06:13:00.000Z,50.19
2023-05-08T06:16:06.231Z,49.83
2023-05-08T06:19:15.405Z,50.29
2023-05-08T06:22:23.401Z,49.89
2023-05-08T06:25:29.858Z,50.45
2023-05-08T06:28:35.416Z,49.88
2023-05-08T06:31:41.847Z,49.27
2023-05-08T06:34:50.143Z,48.76
2023-05-08T06:37:56.595Z,49.26
2023-05-08T06:41:02.168Z,49.13
2023-05-08T06:44:08.960Z,49.99
2023-05-08T06:47:14.678Z,49.46
2023-05-08T06:50:24.179Z,49.10
2023-05-08T06:53:29.820Z,49.09
2023-05-08T06:56:36.278Z,48.95
2023-05-08T06:59:42.041Z,48.71
2023-05-08T07:02:48.455Z,48.33
2023-05-08T07:05:57.107Z,47.13
2023-05-08T07:09:03.537Z,47.15
2023-05-08T07:12:09.850Z,44.87
2023-05-08T07:15:25.195Z,44.50
2023-05-08T07:18:31.455Z,44.12
2023-05-08T07:21:40.720Z,44.14
2023-05-08T07:24:46.301Z,45.11
2023-05-08T07:27:52.739Z,44.46
2023-05-08T07:30:58.605Z,45.49
2023-05-08T07:34:04.889Z,44.11
2023-05-08T07:37:13.328Z,44.12
2023-05-08T07:40:19.921Z,44.20
2023-05-08T07:43:25.611Z,44.69
2023-05-08T07:46:34.796Z,44.29
2023-05-08T07:49:40.350Z,43.87
2023-05-08T07:52:50.408Z,42.62
2023-05-08T07:55:56.227Z,41.58
2023-05-08T07:59:02.722Z,41.06
2023-05-08T08:02:08.474Z,40.92
2023-05-08T08:05:15.391Z,40.98
2023-05-08T08:08:23.956Z,40.97
2023-05-08T08:11:30.596Z,40.62
2023-05-08T08:14:36.352Z,38.88
2023-05-08T08:17:43.148Z,37.32
2023-05-08T08:20:48.879Z,36.56
2023-05-08T08:23:58.456Z,35.35
2023-05-08T08:27:04.380Z,36.18
2023-05-08T08:30:16.836Z,35.19
2023-05-08T08:33:24.803Z,35.12
2023-05-08T08:36:31.492Z,35.09
2023-05-08T08:39:39.776Z,35.33
2023-05-08T08:42:47.434Z,35.78
2023-05-08T08:45:53.222Z,36.85
2023-05-08T08:49:02.244Z,36.86
2023-05-08T08:52:44.467Z,36.51
2023-05-08T08:55:59.030Z,36.56
2023-05-08T08:59:07.600Z,36.36
2023-05-08T09:02:18.195Z,37.00
2023-05-08T09:05:26.778Z,37.48
2023-05-08T09:08:33.629Z,36.99
2023-05-08T09:11:44.222Z,36.61
2023-05-08T09:14:50.831Z,36.75
2023-05-08T09:17:56.543Z,36.69
2023-05-08T09:21:03.620Z,37.11
2023-05-08T09:24:10.046Z,35.69
2023-05-08T09:27:26.084Z,35.30
2023-05-08T09:30:31.987Z,35.11
2023-05-08T09:33:47.836Z,35.71
2023-05-08T09:36:53.851Z,35.21
2023-05-08T09:40:19.022Z,34.93
2023-05-08T09:43:27.169Z,34.92
2023-05-08T09:46:35.243Z,35.30
2023-05-08T09:49:41.355Z,35.35
2023-05-08T09:52:52.047Z,35.83
2023-05-08T09:55:57.709Z,35.22
2023-05-08T09:59:08.526Z,35.04
2023-05-08T10:02:16.474Z,34.87
2023-05-08T10:05:30.283Z,33.86
2023-05-08T10:08:35.941Z,34.08
2023-05-08T10:11:43.552Z,33.85
2023-05-08T10:14:51.796Z,30.29
2023-05-08T10:18:08.343Z,29.65
2023-05-08T10:21:14.964Z,28.86
2023-05-08T10:24:23.936Z,30.12
2023-05-08T10:27:46.625Z,29.97
2023-05-08T10:31:02.580Z,29.86
2023-05-08T10:34:09.203Z,30.92
2023-05-08T10:37:17.670Z,30.37
2023-05-08T10:40:24.954Z,30.56
2023-05-08T10:43:34.096Z,30.02
2023-05-08T10:46:53.205Z,29.46
2023-05-08T10:50:16.424Z,29.64
2023-05-08T10:53:35.015Z,27.61
2023-05-08T10:56:42.273Z,26.89
2023-05-08T10:59:50.145Z,25.56
2023-05-08T11:03:20.036Z,23.81
2023-05-08T11:06:59.261Z,23.51
2023-05-08T11:10:17.276Z,23.10
2023-05-08T11:13:34.153Z,21.49
2023-05-08T11:17:12.021Z,20.30
2023-05-08T11:20:26.483Z,21.35
2023-05-08T11:23:34.698Z,22.12
2023-05-08T11:26:43.525Z,22.71
2023-05-08T11:30:37.700Z,23.89
2023-05-08T11:33:44.843Z,25.64
2023-05-08T11:37:12.105Z,25.90
2023-05-08T11:40:58.994Z,27.05
2023-05-08T11:44:22.648Z,27.05
2023-05-08T11:47:41.689Z,27.74
2023-05-08T11:50:49.459Z,28.56
2023-05-08T11:53:57.840Z,28.51
2023-05-08T11:57:04.658Z,28.88
2023-05-08T12:00:13.836Z,29.20
2023-05-08T12:03:25.746Z,30.24
2023-05-08T12:06:32.029Z,28.55
2023-05-08T12:09:41.413Z,28.91
2023-05-08T12:12:48.700Z,28.47
2023-05-08T12:15:58.349Z,27.75
2023-05-08T12:19:03.962Z,26.76
2023-05-08T12:22:12.454Z,24.28
2023-05-08T12:25:24.306Z,23.81
2023-05-08T12:28:32.504Z,22.02
2023-05-08T12:31:39.410Z,22.31
2023-05-08T12:34:46.385Z,22.14
2023-05-08T12:37:55.353Z,21.82
2023-05-08T12:41:08.875Z,21.14
2023-05-08T12:44:22.908Z,22.48
2023-05-08T12:47:29.582Z,22.50
2023-05-08T12:50:39.339Z,23.00
2023-05-08T12:53:49.087Z,23.16
2023-05-08T12:56:57.385Z,24.34
2023-05-08T13:00:08.543Z,25.21
2023-05-08T13:03:16.923Z,25.25
2023-05-08T13:06:25.294Z,25.20
2023-05-08T13:09:31.174Z,25.66
2023-05-08T13:12:40.283Z,26.64
2023-05-08T13:15:46.614Z,27.43
2023-05-08T13:18:53.107Z,26.88
2023-05-08T13:21:58.649Z,27.11
2023-05-08T13:25:05.097Z,26.63
2023-05-08T13:28:14.009Z,26.08
2023-05-08T13:31:20.535Z,24.12
2023-05-08T13:34:26.477Z,23.89
2023-05-08T13:37:33.818Z,23.78
2023-05-08T13:40:39.456Z,24.20
2023-05-08T13:43:48.579Z,24.31
2023-05-08T13:46:54.217Z,24.43
2023-05-08T13:50:01.089Z,25.09
2023-05-08T13:53:06.777Z,26.33
2023-05-08T13:56:13.352Z,26.66
2023-05-08T13:59:21.627Z,26.59
2023-05-08T14:02:28.404Z,27.74
2023-05-08T14:05:34.070Z,27.47
2023-05-08T14:08:46.525Z,27.31
2023-05-08T14:11:53.499Z,27.33
2023-05-08T14:15:02.598Z,26.51
2023-05-08T14:18:08.387Z,27.49
2023-05-08T14:21:14.898Z,27.70
2023-05-08T14:24:20.470Z,27.68
2023-05-08T14:27:28.013Z,27.54
2023-05-08T14:30:36.278Z,28.76
2023-05-08T14:33:42.765Z,29.18
2023-05-08T14:36:48.399Z,29.52
2023-05-08T14:39:57.887Z,30.26
2023-05-08T14:43:03.570Z,30.85
2023-05-08T14:46:12.838Z,31.40
2023-05-08T14:49:25.304Z,31.27
2023-05-08T14:52:39.872Z,31.47
2023-05-08T14:55:45.935Z,31.49
2023-05-08T14:58:52.858Z,32.23
2023-05-08T15:02:01.130Z,31.56
2023-05-08T15:05:17.040Z,31.46
2023-05-08T15:08:25.140Z,31.26
2023-05-08T15:11:31.612Z,30.82
2023-05-08T15:14:37.364Z,31.29
2023-05-08T15:17:46.263Z,31.86
2023-05-08T15:20:51.816Z,32.01
2023-05-08T15:23:59.021Z,30.83
2023-05-08T15:27:04.597Z,30.86
2023-05-08T15:30:12.956Z,31.65
2023-05-08T15:33:21.192Z,31.06
2023-05-08T15:36:28.523Z,31.67
2023-05-08T15:39:34.135Z,32.17
2023-05-08T15:42:40.531Z,33.31
2023-05-08T15:45:46.101Z,32.28
2023-05-08T15:48:55.333Z,32.77
2023-05-08T15:52:00.893Z,32.69
2023-05-08T15:55:08.006Z,32.83
2023-05-08T15:58:13.604Z,32.99
2023-05-08T16:01:19.970Z,31.85
2023-05-08T16:04:28.162Z,31.20
2023-05-08T16:07:34.807Z,30.92
2023-05-08T16:10:40.838Z,31.07
2023-05-08T16:13:47.287Z,31.46
2023-05-08T16:16:52.851Z,31.54
2023-05-08T16:20:04.022Z,31.39
2023-05-08T16:23:09.591Z,31.80
2023-05-08T16:26:16.828Z,31.60
2023-05-08T16:29:22.522Z,32.47
2023-05-08T16:32:29.223Z,33.15
2023-05-08T16:35:37.462Z,33.48
2023-05-08T16:38:44.205Z,34.13
2023-05-08T16:41:49.775Z,34.42
2023-05-08T16:44:56.233Z,34.51
2023-05-08T16:48:01.929Z,34.76
2023-05-08T16:51:11.007Z,35.29
2023-05-08T16:54:16.714Z,35.33
2023-05-08T16:57:23.201Z,35.95
2023-05-08T17:00:29.134Z,35.90
2023-05-08T17:03:36.004Z,36.00
2023-05-08T17:06:44.779Z,36.47
2023-05-08T17:09:53.306Z,36.13
2023-05-08T17:12:59.113Z,36.23
2023-05-08T17:16:05.638Z,36.33
2023-05-08T17:19:13.530Z,36.52
2023-05-08T17:22:22.847Z,36.97
2023-05-08T17:25:28.472Z,37.19
2023-05-08T17:28:35.001Z,37.02
2023-05-08T17:31:40.897Z,37.44
2023-05-08T17:34:47.594Z,37.95
2023-05-08T17:37:55.841Z,37.60
2023-05-08T17:41:02.344Z,38.53
2023-05-08T17:44:08.220Z,38.56
2023-05-08T17:47:14.706Z,37.87
2023-05-08T17:50:20.359Z,38.24
2023-05-08T17:53:29.506Z,38.35
2023-05-08T17:56:35.089Z,38.16
2023-05-08T17:59:41.602Z,38.08
2023-05-08T18:02:47.261Z,38.83
2023-05-08T18:05:53.790Z,38.79
2023-05-08T18:09:02.614Z,38.74
2023-05-08T18:12:10.358Z,39.23
2023-05-08T18:15:16.800Z,39.08
2023-05-08T18:18:23.257Z,39.43
2023-05-08T18:21:29.435Z,39.73
2023-05-08T18:24:38.597Z,39.88
2023-05-08T18:27:46.203Z,39.98
2023-05-08T18:30:52.762Z,40.25
2023-05-08T18:33:58.328Z,40.40
2023-05-08T18:37:04.750Z,40.48
2023-05-08T18:40:15.221Z,40.98
2023-05-08T18:43:21.989Z,41.29
2023-05-08T18:46:27.681Z,41.69
2023-05-08T18:49:34.519Z,42.01
2023-05-08T18:52:40.832Z,41.91
2023-05-08T18:55:49.927Z,42.08
2023-05-08T18:58:55.404Z,42.21
2023-05-08T19:02:02.334Z,42.31
2023-05-08T19:05:09.639Z,42.28
2023-05-08T19:08:16.328Z,42.40
2023-05-08T19:11:24.546Z,42.26
2023-05-08T19:14:31.053Z,41.96
2023-05-08T19:17:37.097Z,41.92
2023-05-08T19:20:43.728Z,41.76
2023-05-08T19:23:49.954Z,42.01
2023-05-08T19:27:00.676Z,42.22
2023-05-08T19:30:07.109Z,42.62
2023-05-08T19:33:13.674Z,42.78
2023-05-08T19:36:19.442Z,42.96
2023-05-08T19:39:25.918Z,42.96
2023-05-08T19:42:34.424Z,43.02
2023-05-08T19:45:41.098Z,43.86
2023-05-08T19:48:46.755Z,43.99
2023-05-08T19:51:53.415Z,44.07
2023-05-08T19:55:00.251Z,44.40
2023-05-08T19:58:09.365Z,44.79
2023-05-08T20:01:15.015Z,45.14
2023-05-08T20:04:21.821Z,45.29
2023-05-08T20:07:27.380Z,45.30
2023-05-08T20:10:35.152Z,45.85
2023-05-08T20:13:43.323Z,46.04
2023-05-08T20:16:49.719Z,46.00
2023-05-08T20:19:55.349Z,46.24
2023-05-08T20:23:01.933Z,46.52
2023-05-08T20:26:08.737Z,46.42
2023-05-08T20:29:17.805Z,46.81
2023-05-08T20:32:23.456Z,47.28
2023-05-08T20:35:30.017Z,47.63
2023-05-08T20:38:36.698Z,47.38
2023-05-08T20:41:43.328Z,47.62
2023-05-08T20:44:51.480Z,48.02
2023-05-08T20:47:58.099Z,48.08
2023-05-08T20:51:03.997Z,47.89
2023-05-08T20:54:10.473Z,48.13
2023-05-08T20:57:18.474Z,48.70
2023-05-08T21:00:27.502Z,49.06
2023-05-08T21:03:33.193Z,49.13
2023-05-08T21:06:39.701Z,49.03
2023-05-08T21:09:45.594Z,49.04
2023-05-08T21:12:52.106Z,49.56
2023-05-08T21:16:00.407Z,49.61
2023-05-08T21:19:07.086Z,49.63
2023-05-08T21:22:14.055Z,50.22
2023-05-08T21:25:21.979Z,49.61
2023-05-08T21:28:27.800Z,49.52
2023-05-08T21:31:38.042Z,48.97
2023-05-08T21:34:43.728Z,49.16
2023-05-08T21:37:52.640Z,49.34
2023-05-08T21:41:08.345Z,49.26
2023-05-08T21:44:15.838Z,49.47
2023-05-08T21:47:27.374Z,49.56
2023-05-08T21:50:33.824Z,49.44
2023-05-08T21:53:39.457Z,49.47
2023-05-08T21:56:45.909Z,49.38
2023-05-08T21:59:51.958Z,49.13
2023-05-08T22:03:01.309Z,49.28
2023-05-08T22:06:07.531Z,49.36
2023-05-08T22:09:13.923Z,49.43
2023-05-08T22:12:19.585Z,49.06
2023-05-08T22:15:29.656Z,48.86
2023-05-08T22:18:38.682Z,49.12
2023-05-08T22:21:45.911Z,49.01
2023-05-08T22:24:51.523Z,49.41
2023-05-08T22:27:57.987Z,49.22
2023-05-08T22:31:03.598Z,49.34
2023-05-08T22:34:12.801Z,48.94
2023-05-08T22:37:18.489Z,48.88
2023-05-08T22:40:25.678Z,48.91
2023-05-08T22:43:31.442Z,49.16
2023-05-08T22:46:38.915Z,49.30
2023-05-08T22:49:48.267Z,49.25
2023-05-08T22:52:54.897Z,49.44
2023-05-08T22:56:00.595Z,49.80
2023-05-08T22:59:08.028Z,50.06
2023-05-08T23:02:13.642Z,50.34
2023-05-08T23:05:22.792Z,50.79
2023-05-08T23:08:28.476Z,51.31
2023-05-08T23:11:34.987Z,51.34
2023-05-08T23:14:40.652Z,51.19
2023-05-08T23:17:47.172Z,51.13
2023-05-08T23:20:55.505Z,51.17
2023-05-08T23:24:02.297Z,51.40
2023-05-08T23:27:07.879Z,50.96
2023-05-08T23:30:17.206Z,50.70
2023-05-08T23:33:22.865Z,50.38
2023-05-08T23:36:33.199Z,50.45
2023-05-08T23:39:41.599Z,50.76
2023-05-08T23:42:49.016Z,50.33
2023-05-08T23:45:54.714Z,50.21
2023-05-08T23:49:01.132Z,50.23
2023-05-08T23:52:10.341Z,50.12
2023-05-08T23:55:16.881Z,49.77
2023-05-08T23:58:22.678Z,50.09
